Time;durP1;ratioP1;P1;durP2;ratioP2;P2;SDS_P1;SDS_P2;PMS_P1;PMS_P2;Temp;Humidity;BMP_temperature;BMP_pressure;BME280_temperature;BME280_humidity;BME280_pressure;Samples;Min_cycle;Max_cycle;Signal;HPM_P1;HPM_P2
2022/11/27 00:00:04;;;;;;;0.20;0.20;;;;;;;4.99;100.00;102501.53;4972860;28;20432;-75
2022/11/27 00:02:30;;;;;;;0.20;0.20;;;;;;;4.74;100.00;102507.53;4971083;28;20764;-76
2022/11/27 00:04:55;;;;;;;0.20;0.20;;;;;;;4.79;100.00;102502.06;4972113;28;20153;-76
2022/11/27 00:07:20;;;;;;;0.13;0.13;;;;;;;4.77;100.00;102483.50;4954627;28;20121;-76
2022/11/27 00:09:46;;;;;;;0.20;0.20;;;;;;;4.45;100.00;102458.63;4971859;28;20212;-77
2022/11/27 00:12:11;;;;;;;0.20;0.20;;;;;;;4.83;100.00;102495.75;4975394;28;20084;-75
2022/11/27 00:14:36;;;;;;;0.20;0.20;;;;;;;4.87;100.00;102491.25;4975371;28;20582;-76
2022/11/27 00:17:02;;;;;;;0.20;0.20;;;;;;;4.93;100.00;102489.28;4959207;28;20080;-76
2022/11/27 00:19:28;;;;;;;0.20;0.20;;;;;;;4.78;100.00;102466.63;4970524;28;20025;-75
2022/11/27 00:21:53;;;;;;;0.20;0.20;;;;;;;4.87;100.00;102475.28;4955594;28;20035;-75
2022/11/27 00:24:18;;;;;;;0.20;0.20;;;;;;;5.00;100.00;102474.00;4974687;28;20030;-75
2022/11/27 00:26:45;;;;;;;0.20;0.20;;;;;;;4.92;100.00;102465.34;4956723;28;20038;-75
2022/11/27 00:29:10;;;;;;;0.20;0.20;;;;;;;4.62;100.00;102450.19;4953740;28;20038;-75
2022/11/27 00:31:36;;;;;;;0.20;0.20;;;;;;;4.74;100.00;102464.09;4978452;28;20061;-76
2022/11/27 00:34:05;;;;;;;0.20;0.20;;;;;;;4.64;100.00;102463.44;4976734;28;20397;-72
2022/11/27 00:36:32;;;;;;;0.20;0.20;;;;;;;4.61;100.00;102464.41;4957065;28;20057;-76
2022/11/27 00:38:57;;;;;;;0.20;0.20;;;;;;;4.74;100.00;102464.97;4978692;28;20058;-77
2022/11/27 00:41:24;;;;;;;0.20;0.20;;;;;;;4.61;100.00;102464.41;4957701;28;20145;-76
2022/11/27 00:43:50;;;;;;;0.13;0.13;;;;;;;4.53;100.00;102457.56;4971595;28;20424;-75
2022/11/27 00:46:18;;;;;;;0.20;0.20;;;;;;;4.52;100.00;102453.16;4957727;28;20030;-76
2022/11/27 00:48:44;;;;;;;0.10;0.10;;;;;;;4.46;100.00;102419.63;4938049;28;20105;-75
2022/11/27 00:51:12;;;;;;;0.10;0.10;;;;;;;4.53;100.00;102450.44;4958914;28;20482;-73
2022/11/27 00:53:38;;;;;;;0.20;0.20;;;;;;;4.56;100.00;102438.84;4965579;28;20385;-77
2022/11/27 00:56:03;;;;;;;0.20;0.20;;;;;;;4.43;100.00;102463.09;4976084;28;20033;-76
2022/11/27 00:58:29;;;;;;;0.17;0.17;;;;;;;4.31;100.00;102410.25;4942623;28;20116;-76
2022/11/27 01:01:05;;;;;;;0.13;0.13;;;;;;;4.39;100.00;102452.59;4959134;28;20496;-76
2022/11/27 01:03:31;;;;;;;0.20;0.20;;;;;;;4.44;100.00;102443.56;4976930;28;20035;-77
2022/11/27 01:05:56;;;;;;;0.20;0.20;;;;;;;4.30;100.00;102427.97;4952836;28;20057;-77
2022/11/27 01:08:22;;;;;;;0.20;0.20;;;;;;;4.32;100.00;102436.78;4943366;28;20030;-75
2022/11/27 01:10:52;;;;;;;0.20;0.20;;;;;;;4.40;100.00;102441.91;4957760;28;20030;-76
2022/11/27 01:13:18;;;;;;;0.20;0.20;;;;;;;4.34;100.00;102440.28;4958918;28;20449;-76
2022/11/27 01:15:44;;;;;;;0.20;0.20;;;;;;;4.34;100.00;102439.44;4975560;28;20030;-77
2022/11/27 01:18:09;;;;;;;0.20;0.20;;;;;;;4.31;100.00;102442.16;4973750;28;20029;-76
2022/11/27 01:20:38;;;;;;;0.17;0.17;;;;;;;4.00;100.00;102419.00;4955325;28;20034;-76
2022/11/27 01:23:03;;;;;;;0.20;0.20;;;;;;;3.99;100.00;102410.16;4960415;28;20054;-76
2022/11/27 01:25:28;;;;;;;0.20;0.20;;;;;;;4.20;100.00;102422.03;4957414;28;20735;-76
2022/11/27 01:27:54;;;;;;;0.20;0.20;;;;;;;3.86;100.00;102396.28;4955327;28;20038;-77
2022/11/27 01:30:19;;;;;;;0.20;0.20;;;;;;;4.15;100.00;102428.38;4941165;28;20537;-76
2022/11/27 01:32:44;;;;;;;0.20;0.20;;;;;;;4.01;100.00;102410.13;4937944;28;20133;-76
2022/11/27 01:35:09;;;;;;;0.10;0.10;;;;;;;4.25;100.00;102421.91;4957224;28;20041;-77
2022/11/27 01:37:35;;;;;;;0.10;0.10;;;;;;;4.07;100.00;102403.78;4944078;28;20030;-77
2022/11/27 01:40:00;;;;;;;0.20;0.20;;;;;;;3.97;100.00;102416.41;4954582;28;20754;-76
2022/11/27 01:42:25;;;;;;;0.20;0.20;;;;;;;3.93;100.00;102391.72;4937172;28;20476;-78
2022/11/27 01:44:53;;;;;;;0.17;0.17;;;;;;;4.01;100.00;102404.81;4956734;28;20045;-76
2022/11/27 01:47:28;;;;;;;0.20;0.20;;;;;;;4.20;100.00;102407.88;4951577;28;20445;-77
2022/11/27 01:49:55;;;;;;;0.20;0.20;;;;;;;4.24;100.00;102387.38;4943277;28;20053;-76
2022/11/27 01:52:25;;;;;;;0.20;0.20;;;;;;;4.10;100.00;102407.25;4951740;28;20053;-76
2022/11/27 01:54:52;;;;;;;0.20;0.20;;;;;;;4.13;100.00;102407.13;4955064;28;20053;-77
2022/11/27 01:57:21;;;;;;;0.20;0.20;;;;;;;3.98;100.00;102376.50;4954356;28;20034;-77
2022/11/27 01:59:47;;;;;;;0.20;0.20;;;;;;;4.07;100.00;102388.72;4957957;28;20725;-77
2022/11/27 02:02:12;;;;;;;0.20;0.20;;;;;;;4.52;100.00;102382.19;4959048;28;20042;-77
2022/11/27 02:04:38;;;;;;;0.20;0.20;;;;;;;4.27;100.00;102361.59;4942892;28;20074;-78
2022/11/27 02:07:03;;;;;;;0.13;0.13;;;;;;;4.42;100.00;102344.34;4959524;28;20034;-77
2022/11/27 02:09:29;;;;;;;0.10;0.10;;;;;;;4.30;100.00;102334.06;4969196;28;20026;-78
2022/11/27 02:11:58;;;;;;;0.10;0.10;;;;;;;4.26;100.00;102335.03;4957630;28;20084;-76
2022/11/27 02:14:44;;;;;;;0.20;0.20;;;;;;;4.43;100.00;102345.22;4958611;28;20041;-77
2022/11/27 02:17:28;;;;;;;0.20;0.20;;;;;;;4.35;100.00;102334.81;4960402;28;20518;-77
2022/11/27 02:20:22;;;;;;;0.10;0.10;;;;;;;4.34;100.00;102327.75;4955317;28;20050;-77
2022/11/27 02:23:10;;;;;;;0.20;0.20;;;;;;;4.05;100.00;102293.03;4961022;28;20061;-77
2022/11/27 02:26:24;;;;;;;0.15;0.15;;;;;;;4.19;100.00;102313.94;4970559;28;20038;-77
2022/11/27 02:29:22;;;;;;;0.20;0.20;;;;;;;4.27;100.00;102307.53;4919033;29;20035;-77
2022/11/27 02:32:14;;;;;;;0.20;0.20;;;;;;;4.29;100.00;102298.59;4933060;28;20054;-77
2022/11/27 02:34:54;;;;;;;0.20;0.20;;;;;;;4.22;100.00;102278.44;4959301;28;20548;-76
2022/11/27 02:37:26;;;;;;;0.10;0.10;;;;;;;4.28;100.00;102299.50;4960635;28;20034;-76
2022/11/27 02:40:06;;;;;;;0.20;0.20;;;;;;;4.22;100.00;102278.44;4946542;28;20556;-77
2022/11/27 02:42:36;;;;;;;0.20;0.20;;;;;;;4.14;100.00;102285.75;4957050;28;20038;-76
2022/11/27 02:45:11;;;;;;;0.20;0.20;;;;;;;4.03;100.00;102284.25;4957653;28;20053;-76
2022/11/27 02:47:38;;;;;;;0.10;0.10;;;;;;;4.16;100.00;102289.22;4959858;28;20026;-78
2022/11/27 02:50:09;;;;;;;0.20;0.20;;;;;;;4.27;100.00;102302.22;4945781;28;20038;-78
2022/11/27 02:52:35;;;;;;;0.20;0.20;;;;;;;4.12;100.00;102303.53;4953251;28;22064;-76
2022/11/27 02:55:04;;;;;;;0.20;0.20;;;;;;;3.94;100.00;102286.28;4968761;28;20026;-76
2022/11/27 02:57:30;;;;;;;0.20;0.20;;;;;;;4.15;100.00;102306.09;4941235;28;20037;-77
2022/11/27 02:59:56;;;;;;;0.10;0.10;;;;;;;4.05;100.00;102303.69;4953741;28;20380;-76
2022/11/27 03:02:32;;;;;;;0.17;0.17;;;;;;;3.88;100.00;102290.84;4949359;28;20109;-76
2022/11/27 03:04:59;;;;;;;0.10;0.10;;;;;;;4.05;100.00;102289.53;4931278;28;20127;-76
2022/11/27 03:07:36;;;;;;;0.20;0.20;;;;;;;4.18;100.00;102306.88;4956925;28;20725;-77
2022/11/27 03:10:07;;;;;;;0.20;0.20;;;;;;;4.29;100.00;102279.13;4955782;28;20485;-77
2022/11/27 03:12:33;;;;;;;0.20;0.20;;;;;;;3.88;100.00;102253.63;4939698;28;20065;-77
2022/11/27 03:14:58;;;;;;;0.20;0.20;;;;;;;4.22;100.00;102261.59;4956889;28;20030;-76
2022/11/27 03:17:37;;;;;;;0.20;0.20;;;;;;;4.20;100.00;102278.47;4938253;28;20129;-77
2022/11/27 03:20:14;;;;;;;0.20;0.20;;;;;;;4.40;100.00;102295.63;4975098;28;20081;-77
2022/11/27 03:22:39;;;;;;;0.20;0.20;;;;;;;4.56;100.00;102273.94;4972270;28;20485;-78
2022/11/27 03:25:04;;;;;;;0.20;0.20;;;;;;;4.18;100.00;102258.16;4956175;28;20057;-76
2022/11/27 03:27:34;;;;;;;0.20;0.20;;;;;;;4.54;100.00;102281.06;4973039;28;20420;-76
2022/11/27 03:30:01;;;;;;;0.20;0.20;;;;;;;4.69;100.00;102277.09;4965937;28;20035;-77
2022/11/27 03:32:27;;;;;;;0.20;0.20;;;;;;;4.42;100.00;102247.72;4954592;28;20026;-77
2022/11/27 03:34:53;;;;;;;0.20;0.20;;;;;;;4.67;100.00;102266.47;4952585;28;20100;-78
2022/11/27 03:37:19;;;;;;;0.20;0.20;;;;;;;4.59;100.00;102261.41;4937798;28;20057;-78
2022/11/27 03:39:44;;;;;;;0.20;0.20;;;;;;;4.62;100.00;102248.00;4959474;28;20116;-77
2022/11/27 03:42:17;;;;;;;0.10;0.10;;;;;;;4.62;100.00;102249.81;4980170;28;20037;-77
2022/11/27 03:44:48;;;;;;;0.20;0.20;;;;;;;4.88;100.00;102280.06;4972066;28;20034;-77
2022/11/27 03:47:45;;;;;;;0.20;0.20;;;;;;;4.67;100.00;102287.75;4973878;28;20535;-77
2022/11/27 03:50:18;;;;;;;0.20;0.20;;;;;;;4.88;100.00;102280.06;4971259;28;20040;-78
2022/11/27 03:53:16;;;;;;;0.20;0.20;;;;;;;4.90;100.00;102265.78;4971073;28;20480;-78
2022/11/27 03:55:47;;;;;;;0.20;0.20;;;;;;;4.86;100.00;102245.50;4961820;28;20049;-78
2022/11/27 03:58:32;;;;;;;0.20;0.20;;;;;;;4.98;100.00;102262.03;4958945;28;20441;-78
2022/11/27 04:00:58;;;;;;;0.15;0.15;;;;;;;4.75;100.00;102253.81;4958581;28;20477;-78
2022/11/27 04:03:27;;;;;;;0.20;0.20;;;;;;;4.97;100.00;102265.59;4955627;28;20038;-78
2022/11/27 04:05:52;;;;;;;0.10;0.10;;;;;;;4.88;100.00;102243.66;4941768;28;20035;-78
2022/11/27 04:08:18;;;;;;;0.17;0.17;;;;;;;4.86;100.00;102261.47;4959757;28;20389;-78
2022/11/27 04:10:43;;;;;;;0.10;0.10;;;;;;;4.90;100.00;102238.31;4961577;28;20476;-78
2022/11/27 04:13:09;;;;;;;0.20;0.20;;;;;;;4.78;100.00;102239.53;4945370;28;20177;-78
2022/11/27 04:15:34;;;;;;;0.10;0.10;;;;;;;4.93;100.00;102224.88;4957278;28;20034;-78
2022/11/27 04:17:59;;;;;;;0.10;0.10;;;;;;;4.89;100.00;102240.09;4944860;28;20061;-78
2022/11/27 04:20:24;;;;;;;0.20;0.20;;;;;;;5.00;100.00;102234.41;4943645;28;20038;-76
2022/11/27 04:22:50;;;;;;;0.20;0.20;;;;;;;4.84;100.00;102238.50;4945420;28;20066;-78
2022/11/27 04:25:15;;;;;;;0.15;0.15;;;;;;;5.08;100.00;102220.88;4943397;28;20548;-78
2022/11/27 04:27:40;;;;;;;0.15;0.15;;;;;;;4.92;100.00;102232.00;4942987;28;20497;-76
2022/11/27 04:30:06;;;;;;;0.20;0.20;;;;;;;4.98;100.00;102252.22;4940890;28;20137;-76
2022/11/27 04:32:32;;;;;;;0.20;0.20;;;;;;;4.88;100.00;102219.72;4944483;28;20034;-77
2022/11/27 04:34:57;;;;;;;0.20;0.20;;;;;;;5.14;100.00;102231.31;4957336;28;20035;-77
2022/11/27 04:37:22;;;;;;;0.20;0.20;;;;;;;4.86;100.00;102218.03;4935410;28;20066;-78
2022/11/27 04:39:48;;;;;;;0.20;0.20;;;;;;;5.13;100.00;102244.69;4940952;28;20035;-79
2022/11/27 04:42:13;;;;;;;0.10;0.10;;;;;;;4.91;100.00;102227.59;4936946;28;20138;-77
2022/11/27 04:44:38;;;;;;;0.10;0.10;;;;;;;4.95;100.00;102233.69;4939977;28;20053;-76
2022/11/27 04:47:04;;;;;;;0.17;0.17;;;;;;;5.12;100.00;102241.16;4944551;28;20299;-76
2022/11/27 04:49:29;;;;;;;0.20;0.20;;;;;;;4.64;100.00;102211.59;4974099;28;20479;-78
2022/11/27 04:51:54;;;;;;;0.20;0.20;;;;;;;5.04;100.00;102256.47;4959221;28;20120;-77
2022/11/27 04:54:19;;;;;;;0.10;0.10;;;;;;;5.06;100.00;102234.22;4944761;28;20400;-77
2022/11/27 04:56:45;;;;;;;0.10;0.10;;;;;;;5.05;100.00;102224.50;4960107;28;20694;-77
2022/11/27 04:59:10;;;;;;;0.17;0.17;;;;;;;4.84;100.00;102246.47;4943398;28;20069;-78
2022/11/27 05:01:35;;;;;;;0.20;0.20;;;;;;;4.97;100.00;102239.00;4960977;28;20109;-78
2022/11/27 05:04:01;;;;;;;0.20;0.20;;;;;;;5.00;100.00;102210.47;4959209;28;20029;-77
2022/11/27 05:06:26;;;;;;;0.10;0.10;;;;;;;4.81;100.00;102204.84;4957950;28;20036;-77
2022/11/27 05:08:58;;;;;;;0.10;0.10;;;;;;;5.02;100.00;102219.28;4957895;28;20034;-77
2022/11/27 05:11:24;;;;;;;0.20;0.20;;;;;;;5.11;100.00;102204.78;4966584;28;20108;-77
2022/11/27 05:14:13;;;;;;;0.20;0.20;;;;;;;5.14;100.00;102222.47;4959543;28;20027;-77
2022/11/27 05:16:34;;;;;;;0.10;0.10;;;;;;;5.02;100.00;102202.44;4961460;28;20039;-77
2022/11/27 05:18:59;;;;;;;0.20;0.20;;;;;;;4.86;100.00;102186.97;4960437;28;20022;-77
2022/11/27 05:21:25;;;;;;;0.10;0.10;;;;;;;5.07;100.00;102196.03;4958212;28;20508;-78
2022/11/27 05:23:50;;;;;;;0.20;0.20;;;;;;;4.79;100.00;102183.63;4961119;28;20512;-78
2022/11/27 05:26:15;;;;;;;0.20;0.20;;;;;;;5.04;100.00;102195.25;4963904;28;20026;-77
2022/11/27 05:28:41;;;;;;;0.13;0.13;;;;;;;4.90;100.00;102174.44;4958920;28;21257;-78
2022/11/27 05:31:06;;;;;;;0.10;0.10;;;;;;;4.58;100.00;102169.22;4960763;28;20060;-77
2022/11/27 05:33:31;;;;;;;0.20;0.20;;;;;;;4.95;100.00;102191.09;4954243;28;20544;-78
2022/11/27 05:35:56;;;;;;;0.15;0.15;;;;;;;4.77;100.00;102163.28;4950039;28;20190;-76
2022/11/27 05:38:22;;;;;;;0.15;0.15;;;;;;;5.07;100.00;102181.84;4955425;28;20026;-77
2022/11/27 05:40:47;;;;;;;0.10;0.10;;;;;;;4.86;100.00;102172.78;4972696;28;20034;-77
2022/11/27 05:43:12;;;;;;;0.10;0.10;;;;;;;5.17;100.00;102182.41;4957658;28;20037;-77
2022/11/27 05:45:38;;;;;;;0.17;0.17;;;;;;;5.05;100.00;102173.91;4962178;28;20034;-77
2022/11/27 05:48:03;;;;;;;0.20;0.20;;;;;;;5.21;100.00;102176.94;4960151;28;20038;-78
2022/11/27 05:50:28;;;;;;;0.10;0.10;;;;;;;4.86;100.00;102172.78;4959369;28;20109;-77
2022/11/27 05:52:54;;;;;;;0.20;0.20;;;;;;;5.02;100.00;102179.34;4960685;28;20037;-79
2022/11/27 05:55:19;;;;;;;0.15;0.15;;;;;;;4.95;100.00;102153.84;4957313;28;20026;-77
2022/11/27 05:57:44;;;;;;;0.20;0.20;;;;;;;5.04;100.00;102164.19;4939487;28;20884;-78
2022/11/27 06:00:10;;;;;;;0.20;0.20;;;;;;;5.09;100.00;102172.03;4942454;28;20640;-78
2022/11/27 06:02:36;;;;;;;0.20;0.20;;;;;;;4.81;100.00;102151.63;4949782;28;20502;-78
2022/11/27 06:05:01;;;;;;;0.20;0.20;;;;;;;4.98;100.00;102159.06;4973434;28;20030;-77
2022/11/27 06:07:26;;;;;;;0.20;0.20;;;;;;;5.00;100.00;102151.03;4954296;28;20591;-77
2022/11/27 06:09:51;;;;;;;0.10;0.10;;;;;;;5.19;100.00;102162.81;4959009;28;20034;-79
2022/11/27 06:12:17;;;;;;;0.20;0.20;;;;;;;5.14;100.00;102158.56;4955294;28;20034;-77
2022/11/27 06:14:42;;;;;;;0.20;0.20;;;;;;;5.25;100.00;102145.75;4969376;28;20037;-78
2022/11/27 06:17:07;;;;;;;0.20;0.20;;;;;;;5.08;100.00;102117.91;4964738;28;20513;-78
2022/11/27 06:19:33;;;;;;;0.20;0.20;;;;;;;4.91;100.00;102107.84;4959603;28;20030;-76
2022/11/27 06:21:58;;;;;;;0.20;0.20;;;;;;;5.19;100.00;102156.59;4957288;28;20488;-78
2022/11/27 06:24:23;;;;;;;0.20;0.20;;;;;;;4.93;100.00;102121.97;4940523;28;20037;-76
2022/11/27 06:26:48;;;;;;;0.20;0.20;;;;;;;5.00;100.00;102138.59;4956722;28;20042;-76
2022/11/27 06:29:14;;;;;;;0.10;0.10;;;;;;;5.01;100.00;102123.50;4956298;28;20117;-77
2022/11/27 06:31:41;;;;;;;0.20;0.20;;;;;;;5.28;100.00;102142.13;4955553;28;20050;-78
2022/11/27 06:34:06;;;;;;;0.10;0.10;;;;;;;5.16;100.00;102149.59;4959308;28;20072;-76
2022/11/27 06:36:34;;;;;;;0.20;0.20;;;;;;;5.12;100.00;102141.78;4973674;28;20491;-77
2022/11/27 06:39:00;;;;;;;0.20;0.20;;;;;;;5.31;100.00;102144.66;4960321;28;20523;-77
2022/11/27 06:41:26;;;;;;;0.10;0.10;;;;;;;5.10;100.00;102150.69;4980494;28;20026;-77
2022/11/27 06:43:52;;;;;;;0.10;0.10;;;;;;;5.16;100.00;102124.78;4938683;28;20073;-77
2022/11/27 06:46:19;;;;;;;0.20;0.20;;;;;;;5.22;100.00;102121.88;4945688;28;20026;-75
2022/11/27 06:48:46;;;;;;;0.13;0.13;;;;;;;5.46;100.00;102148.56;4977697;28;20030;-76
2022/11/27 06:51:13;;;;;;;0.20;0.20;;;;;;;5.50;100.00;102155.53;4962957;28;20084;-76
2022/11/27 06:53:39;;;;;;;0.10;0.10;;;;;;;5.05;100.00;102131.34;4946044;28;20569;-77
2022/11/27 06:56:16;;;;;;;0.10;0.10;;;;;;;5.00;100.00;102116.44;4962483;28;20040;-76
2022/11/27 06:58:42;;;;;;;0.10;0.10;;;;;;;5.13;100.00;102148.84;4961631;28;20053;-76
2022/11/27 07:01:09;;;;;;;0.10;0.10;;;;;;;5.31;100.00;102124.22;4960846;28;20521;-77
2022/11/27 07:03:35;;;;;;;0.10;0.10;;;;;;;5.22;100.00;102127.22;4958388;28;20488;-76
2022/11/27 07:06:01;;;;;;;0.10;0.10;;;;;;;5.38;100.00;102141.75;4962753;28;20117;-76
2022/11/27 07:08:27;;;;;;;0.10;0.10;;;;;;;5.34;100.00;102117.91;4957724;28;20023;-77
2022/11/27 07:10:53;;;;;;;0.10;0.10;;;;;;;5.34;100.00;102142.78;4975475;28;20038;-77
2022/11/27 07:13:18;;;;;;;0.20;0.20;;;;;;;5.00;100.00;102104.00;4951880;28;20477;-77
2022/11/27 07:15:43;;;;;;;0.10;0.10;;;;;;;5.22;100.00;102100.56;4937263;28;20034;-78
2022/11/27 07:18:09;;;;;;;0.20;0.20;;;;;;;5.33;100.00;102130.38;4971453;28;20049;-77
2022/11/27 07:20:34;;;;;;;0.20;0.20;;;;;;;5.35;100.00;102130.31;4940133;28;20041;-76
2022/11/27 07:22:59;;;;;;;0.10;0.10;;;;;;;5.40;100.00;102121.25;4963005;28;20042;-77
2022/11/27 07:25:25;;;;;;;0.20;0.20;;;;;;;5.18;100.00;102099.81;4959158;28;20297;-76
2022/11/27 07:27:50;;;;;;;0.10;0.10;;;;;;;5.14;100.00;102068.91;4964375;28;20133;-77
2022/11/27 07:30:15;;;;;;;0.20;0.20;;;;;;;5.31;100.00;102097.59;4953361;28;20030;-76
2022/11/27 07:32:41;;;;;;;0.10;0.10;;;;;;;5.29;100.00;102095.94;4947548;28;20045;-77
2022/11/27 07:35:06;;;;;;;0.20;0.20;;;;;;;5.44;100.00;102106.03;4959502;28;20034;-76
2022/11/27 07:37:32;;;;;;;0.20;0.20;;;;;;;5.15;100.00;102072.44;4942702;28;20404;-77
2022/11/27 07:39:57;;;;;;;0.10;0.10;;;;;;;5.37;100.00;102108.03;4971961;28;20101;-76
2022/11/27 07:42:23;;;;;;;0.15;0.15;;;;;;;4.92;100.00;102050.13;4968980;28;20099;-75
2022/11/27 07:44:48;;;;;;;0.10;0.10;;;;;;;5.05;100.00;102091.41;4967487;28;20685;-77
2022/11/27 07:47:13;;;;;;;0.10;0.10;;;;;;;5.13;100.00;102076.97;4939401;28;20568;-78
2022/11/27 07:49:39;;;;;;;0.20;0.20;;;;;;;4.94;100.00;102082.91;4969384;28;20058;-76
2022/11/27 07:52:05;;;;;;;0.17;0.17;;;;;;;5.18;100.00;102093.63;4956648;28;20044;-75
2022/11/27 07:54:31;;;;;;;0.20;0.20;;;;;;;5.15;100.00;102083.97;4956179;28;20418;-76
2022/11/27 07:56:56;;;;;;;0.10;0.10;;;;;;;5.16;100.00;102067.06;4966152;28;20038;-76
2022/11/27 07:59:21;;;;;;;0.10;0.10;;;;;;;4.96;100.00;102041.13;4968364;28;20228;-77
2022/11/27 08:01:47;;;;;;;0.20;0.20;;;;;;;5.15;100.00;102072.44;4936739;28;20041;-75
2022/11/27 08:04:12;;;;;;;0.20;0.20;;;;;;;5.10;100.00;102077.91;4973347;28;20458;-75
2022/11/27 08:06:37;;;;;;;0.20;0.20;;;;;;;4.92;100.00;102066.09;4971671;28;20061;-75
2022/11/27 08:09:03;;;;;;;0.20;0.20;;;;;;;4.94;100.00;102064.25;4956898;28;20420;-74
2022/11/27 08:11:31;;;;;;;0.10;0.10;;;;;;;4.89;100.00;102068.91;4954180;28;21729;-75
2022/11/27 08:14:02;;;;;;;0.10;0.10;;;;;;;4.87;100.00;102033.50;4956136;28;20560;-73
2022/11/27 08:16:28;;;;;;;0.20;0.20;;;;;;;5.09;100.00;102061.09;4965913;28;20026;-73
2022/11/27 08:18:53;;;;;;;0.10;0.10;;;;;;;5.08;100.00;102027.41;4948542;28;20018;-73
2022/11/27 08:21:19;;;;;;;0.20;0.20;;;;;;;5.05;100.00;102034.59;4962574;28;20373;-73
2022/11/27 08:23:44;;;;;;;0.20;0.20;;;;;;;4.91;100.00;102022.66;4977744;28;20649;-74
2022/11/27 08:26:10;;;;;;;0.20;0.20;;;;;;;5.25;100.00;102056.09;4955810;28;20030;-74
2022/11/27 08:28:36;;;;;;;0.20;0.20;;;;;;;5.07;100.00;102046.06;4957143;28;20038;-75
2022/11/27 08:31:02;;;;;;;0.20;0.20;;;;;;;5.17;100.00;102047.50;4959848;28;20112;-75
2022/11/27 08:33:28;;;;;;;0.15;0.15;;;;;;;5.19;100.00;102028.78;4973609;28;20167;-72
2022/11/27 08:35:54;;;;;;;0.20;0.20;;;;;;;4.92;100.00;102013.75;4961995;28;20042;-74
2022/11/27 08:38:20;;;;;;;0.20;0.20;;;;;;;5.04;100.00;102039.06;4952836;28;20028;-73
2022/11/27 08:40:52;;;;;;;0.20;0.20;;;;;;;5.09;100.00;102012.28;4968523;28;20113;-73
2022/11/27 08:43:18;;;;;;;0.20;0.20;;;;;;;5.08;100.00;102027.41;4978898;28;20041;-72
2022/11/27 08:45:43;;;;;;;0.10;0.10;;;;;;;5.25;100.00;102010.81;4965761;28;20030;-73
2022/11/27 08:48:08;;;;;;;0.17;0.17;;;;;;;5.22;100.00;101999.41;4967097;28;20500;-74
2022/11/27 08:50:34;;;;;;;0.10;0.10;;;;;;;5.44;100.00;102035.88;4962533;28;20026;-74
2022/11/27 08:52:59;;;;;;;0.10;0.10;;;;;;;5.09;100.00;101994.53;4959993;28;20026;-73
2022/11/27 08:55:24;;;;;;;0.20;0.20;;;;;;;4.93;100.00;101988.88;4949023;28;20069;-74
2022/11/27 08:57:50;;;;;;;0.20;0.20;;;;;;;5.28;100.00;102022.28;4980581;28;20082;-72
2022/11/27 09:00:15;;;;;;;0.10;0.10;;;;;;;5.34;100.00;102019.38;4968163;28;20056;-72
2022/11/27 09:02:41;;;;;;;0.10;0.10;;;;;;;5.13;100.00;101989.09;4983918;28;20034;-73
2022/11/27 09:05:06;;;;;;;0.20;0.20;;;;;;;5.34;100.00;101996.28;4970165;28;20382;-73
2022/11/27 09:07:32;;;;;;;0.10;0.10;;;;;;;5.51;100.00;102029.41;4985722;28;20045;-73
2022/11/27 09:09:57;;;;;;;0.10;0.10;;;;;;;5.23;100.00;102014.44;4966929;28;20031;-73
2022/11/27 09:12:22;;;;;;;0.17;0.17;;;;;;;5.35;100.00;102019.34;4981626;28;20038;-73
2022/11/27 09:14:48;;;;;;;0.10;0.10;;;;;;;5.28;100.00;101985.00;4983592;28;20027;-72
2022/11/27 09:17:13;;;;;;;0.20;0.20;;;;;;;5.38;100.00;102024.56;4966433;28;20049;-73
2022/11/27 09:19:38;;;;;;;0.10;0.10;;;;;;;5.38;100.00;102005.91;4982922;28;20034;-72
2022/11/27 09:22:04;;;;;;;0.10;0.10;;;;;;;5.16;100.00;101994.31;4967083;28;20133;-72
2022/11/27 09:24:29;;;;;;;0.20;0.20;;;;;;;5.34;100.00;102035.34;4965770;28;20038;-73
2022/11/27 09:26:54;;;;;;;0.10;0.10;;;;;;;5.34;100.00;102030.91;4963558;28;20026;-72
2022/11/27 09:29:20;;;;;;;0.10;0.10;;;;;;;5.28;100.00;102027.63;4971433;28;20026;-72
2022/11/27 09:31:45;;;;;;;0.13;0.13;;;;;;;5.42;100.00;102021.78;4978354;28;20286;-72
2022/11/27 09:34:11;;;;;;;0.10;0.10;;;;;;;5.42;100.00;102033.28;4987887;28;20538;-72
2022/11/27 09:36:36;;;;;;;0.20;0.20;;;;;;;5.45;100.00;102034.97;4981360;28;20035;-72
2022/11/27 09:39:02;;;;;;;0.20;0.20;;;;;;;5.21;100.00;102001.19;4978398;28;20114;-74
2022/11/27 09:41:32;;;;;;;0.10;0.10;;;;;;;5.39;100.00;102031.63;4979063;28;20380;-72
2022/11/27 09:44:01;;;;;;;0.20;0.20;;;;;;;5.66;100.00;102035.97;4979715;28;20394;-74
2022/11/27 09:46:33;;;;;;;0.10;0.10;;;;;;;5.50;100.00;102030.34;4979611;28;20034;-72
2022/11/27 09:48:59;;;;;;;0.10;0.10;;;;;;;5.49;100.00;102020.59;4981372;28;20121;-72
2022/11/27 09:51:35;;;;;;;0.10;0.10;;;;;;;5.46;100.00;102031.38;4938943;28;20037;-73
2022/11/27 09:54:10;;;;;;;0.10;0.10;;;;;;;5.39;100.00;102012.09;4954063;28;20027;-73
2022/11/27 09:56:35;;;;;;;0.10;0.10;;;;;;;5.33;100.00;102001.66;4979061;28;20034;-72
2022/11/27 09:59:01;;;;;;;0.10;0.10;;;;;;;5.33;100.00;101999.88;4974132;28;20030;-72
2022/11/27 10:01:31;;;;;;;0.10;0.10;;;;;;;5.58;100.00;102022.94;4961650;28;20038;-73
2022/11/27 10:03:57;;;;;;;0.10;0.10;;;;;;;5.53;100.00;102027.56;4959671;28;20042;-73
2022/11/27 10:06:37;;;;;;;0.17;0.17;;;;;;;5.52;100.00;102018.72;4962843;28;20030;-72
2022/11/27 10:09:17;;;;;;;0.20;0.20;;;;;;;5.77;100.00;102019.56;4949883;28;20292;-74
2022/11/27 10:11:58;;;;;;;0.10;0.10;;;;;;;5.47;100.00;101978.06;4961557;28;20034;-72
2022/11/27 10:14:48;;;;;;;0.10;0.10;;;;;;;5.74;100.00;102006.34;4976629;28;20106;-72
2022/11/27 10:17:19;;;;;;;0.20;0.20;;;;;;;5.61;100.00;101988.19;4977320;28;20038;-72
2022/11/27 10:19:56;;;;;;;0.15;0.15;;;;;;;5.71;100.00;101992.22;4944648;28;20027;-72
2022/11/27 10:22:27;;;;;;;0.10;0.10;;;;;;;5.94;100.00;101989.56;4974468;28;20022;-73
2022/11/27 10:25:13;;;;;;;0.20;0.20;;;;;;;5.83;100.00;101963.34;4960694;28;20436;-72
2022/11/27 10:28:03;;;;;;;0.10;0.10;;;;;;;6.00;100.00;101970.72;4953918;28;20058;-74
2022/11/27 10:30:31;;;;;;;0.20;0.20;;;;;;;6.08;100.00;101968.59;4977236;28;20065;-72
2022/11/27 10:32:59;;;;;;;0.10;0.10;;;;;;;5.77;100.00;101939.59;4960257;28;20034;-72
2022/11/27 10:35:26;;;;;;;0.10;0.10;;;;;;;5.98;100.00;101962.72;4939819;28;20476;-72
2022/11/27 10:37:58;;;;;;;0.10;0.10;;;;;;;5.99;100.00;101960.94;4977015;28;20584;-72
2022/11/27 10:40:28;;;;;;;0.17;0.17;;;;;;;5.88;100.00;101937.38;4979313;28;20117;-73
2022/11/27 10:42:56;;;;;;;0.10;0.10;;;;;;;6.08;100.00;101946.41;4947148;28;20317;-72
2022/11/27 10:45:34;;;;;;;0.20;0.20;;;;;;;6.00;100.00;101947.56;4960319;28;20546;-72
2022/11/27 10:47:59;;;;;;;0.10;0.10;;;;;;;6.16;100.00;101952.28;4979562;28;20038;-72
2022/11/27 10:50:24;;;;;;;0.10;0.10;;;;;;;5.82;100.00;101909.19;4965308;28;20037;-72
2022/11/27 10:52:59;;;;;;;0.10;0.10;;;;;;;6.15;100.00;101948.75;4960946;28;20110;-72
2022/11/27 10:55:37;;;;;;;0.10;0.10;;;;;;;6.13;100.00;101933.75;4977762;28;20469;-72
2022/11/27 10:58:23;;;;;;;0.10;0.10;;;;;;;6.06;100.00;101949.13;4958738;28;20065;-73
2022/11/27 11:01:06;;;;;;;0.10;0.10;;;;;;;6.11;100.00;101939.13;4965975;28;20029;-72
2022/11/27 11:03:32;;;;;;;0.10;0.10;;;;;;;5.90;100.00;101900.88;4948254;28;20184;-72
2022/11/27 11:05:59;;;;;;;0.20;0.20;;;;;;;6.07;100.00;101923.31;4944878;28;20999;-72
2022/11/27 11:08:25;;;;;;;0.10;0.10;;;;;;;6.20;100.00;101905.91;4966952;28;20117;-72
2022/11/27 11:11:02;;;;;;;0.20;0.20;;;;;;;6.13;100.00;101913.25;4966322;28;20109;-72
2022/11/27 11:13:30;;;;;;;0.10;0.10;;;;;;;5.86;100.00;101920.59;4949296;28;20034;-72
2022/11/27 11:16:03;;;;;;;0.10;0.10;;;;;;;6.10;100.00;101891.22;4964420;28;20061;-72
2022/11/27 11:18:31;;;;;;;0.10;0.10;;;;;;;6.19;100.00;101908.59;4964062;28;20027;-72
2022/11/27 11:21:02;;;;;;;0.10;0.10;;;;;;;5.88;100.00;101873.41;4961220;28;20031;-72
2022/11/27 11:23:31;;;;;;;0.10;0.10;;;;;;;5.97;100.00;101866.81;4944753;28;20433;-73
2022/11/27 11:26:00;;;;;;;0.20;0.20;;;;;;;6.15;100.00;101891.88;4960286;28;20428;-72
2022/11/27 11:28:26;;;;;;;0.10;0.10;;;;;;;5.95;100.00;101876.69;4948716;28;20031;-72